Happy Valentine's Day! 

Flight Track Log - Related Links

Times and Time Zones

All times are in EDT time to prevent confusion due to time zone crossing. See the N39751 flight status page for this flight to view local times or setup timezone preferences in your user account.


Time Position Orientation Groundspeed Altitude Reporting Facility
EDT Latitude Longitude Course Direction KTS MPH feet Rate Location/Type
Thu 12:42:00 PM 35.1943 -82.4537 165° South  Level FlightAware Approximate
Thu 12:43:00 PM 35.1541 -82.4416 167° South  Level FlightAware Approximate
Thu 12:44:00 PM 35.1137 -82.4301 167° South  Level FlightAware Approximate
Thu 12:45:00 PM 35.0734 -82.4186 167° South  Level FlightAware Approximate
Thu 12:46:00 PM 35.0370 -82.4000 180° South  Level FlightAware Approximate
Thu 12:47:00 PM 34.9966 -82.3890 166° South  Level FlightAware Approximate
Thu 12:48:00 PM 34.9564 -82.3769 166° South  Level FlightAware Approximate
Thu 12:49:00 PM 34.9161 -82.3648 166° South  Level FlightAware Approximate
Thu 12:50:00 PM 34.8759 -82.3528 166° South  Level FlightAware Approximate
Thu 12:51:00 PM 34.8479 -82.3500 180° South  Level Estimated
Thu 12:52:00 PM 34.8479 -82.3500 180° South  Level Estimated
Thu 12:53:00 PM 34.8479 -82.3500 180° South  Level Estimated
Thu 12:54:00 PM 34.8479 -82.3500 180° South  Level Estimated
Thu 12:55:00 PM 34.8479 -82.3500 180° South  Level Estimated
Thu 12:56:00 PM 34.8479 -82.3500 180° South  Level Estimated
Thu 12:57:00 PM 34.8479 -82.3500 180° South  Level Estimated
Thu 12:58:00 PM 34.8479 -82.3500 180° South  Level Estimated
Thu 12:59:00 PM 34.8479 -82.3500 180° South  Level Estimated
Thu 01:00:00 PM 34.8479 -82.3500 180° South  Level Estimated
Thu 01:01:00 PM 34.8479 -82.3500 180° South  Level Estimated
Thu 01:02:00 PM 34.8479 -82.3500 180° South  Level Estimated
Thu 01:03:00 PM 34.8479 -82.3500 180° South  Level Estimated
Thu 01:04:00 PM 34.8479 -82.3500 180° South  Level Estimated

Login

Don't have an account? Register now (free) for customized features, flight alerts, and more!